Mount Judea, Arkansas
Current Conditions -  °F | °C
As of 7:53 AM on Saturday 25 Oct 2014 (Local Time) from KHRO Reporting Station
Clear Clear  
Wind Chill: 68°   Ceiling: Unl
Heat Index: 68°   Visibility: 10mi
Dew Point: 59°   Wind: 9mph
Humidity: 73%   Direction: 270°W
Pressure: 30.09"   Gusts: 18mph
Location:  35.92°N, 93.06°W
Report Text: KHRO 251253Z AUTO 27008G16KT 10SM CLR 20/15 A3009 RMK AO2 SLP178 T02000150
Loading
Personal Weather Stations






























Interactive Weather Map
Tropical Storm Tracking
New forecast layout! Learn more

10-Day Weather Forecast

Advertisements
Track Severe Weather on mobile